Time;durP1;ratioP1;P1;durP2;ratioP2;P2;SDS_P1;SDS_P2;PMS_P1;PMS_P2;Temp;Humidity;BMP_temperature;BMP_pressure;BME280_temperature;BME280_humidity;BME280_pressure;Samples;Min_cycle;Max_cycle;Signal;HPM_P1;HPM_P2
2022/01/10 00:02:09;;;;;;;29.07;15.43;;;;;;;2.22;88.54;99746.97;126363;1097;105136;-80
2022/01/10 00:04:40;;;;;;;30.47;15.97;;;;;;;2.20;88.03;99753.73;126348;1099;104174;-79
2022/01/10 00:07:11;;;;;;;27.67;14.77;;;;;;;2.20;88.88;99756.32;126336;1099;104315;-79
2022/01/10 00:09:43;;;;;;;32.00;15.17;;;;;;;2.19;88.76;99758.03;125248;1099;104381;-80
2022/01/10 00:12:14;;;;;;;28.00;14.47;;;;;;;2.20;88.96;99759.83;125304;1099;104271;-79
2022/01/10 00:14:45;;;;;;;28.97;13.70;;;;;;;2.21;87.95;99766.77;125298;1099;104182;-80
2022/01/10 00:17:24;;;;;;;27.47;14.63;;;;;;;2.21;89.03;99761.59;125338;1099;104357;-80
2022/01/10 00:20:06;;;;;;;27.07;14.13;;;;;;;2.21;88.29;99755.53;125312;1099;104213;-81
2022/01/10 00:22:45;;;;;;;26.23;13.67;;;;;;;2.21;88.49;99756.41;125313;1099;104402;-79
2022/01/10 00:25:21;;;;;;;26.57;14.07;;;;;;;2.21;88.23;99758.11;125234;1099;104278;-80
2022/01/10 00:27:54;;;;;;;26.77;13.70;;;;;;;2.22;88.50;99765.09;125573;1099;104171;-80
2022/01/10 00:30:27;;;;;;;25.73;13.60;;;;;;;2.21;88.76;99761.59;126373;1099;104185;-80
2022/01/10 00:33:01;;;;;;;25.47;12.80;;;;;;;2.21;88.73;99764.17;126386;1099;104287;-80
2022/01/10 00:35:35;;;;;;;22.87;11.83;;;;;;;2.22;88.78;99762.50;126310;1099;104172;-80
2022/01/10 00:38:10;;;;;;;21.03;10.97;;;;;;;2.21;88.86;99764.17;126363;1099;104216;-80
2022/01/10 00:40:42;;;;;;;24.03;12.13;;;;;;;2.20;88.59;99759.83;126299;1099;104278;-80
2022/01/10 00:43:18;;;;;;;24.80;11.57;;;;;;;2.20;88.64;99754.65;126337;1099;104178;-80
2022/01/10 00:45:50;;;;;;;22.37;11.20;;;;;;;2.20;88.97;99764.09;126298;1099;104255;-80
2022/01/10 00:48:29;;;;;;;23.60;10.93;;;;;;;2.22;88.68;99757.33;126286;1099;104278;-80
2022/01/10 00:51:05;;;;;;;22.60;11.00;;;;;;;2.20;89.05;99757.23;126389;1099;104322;-80
2022/01/10 00:53:39;;;;;;;21.97;10.60;;;;;;;2.21;88.60;99759.00;126345;1099;104200;-79
2022/01/10 00:56:11;;;;;;;20.97;10.50;;;;;;;2.21;88.66;99760.70;126348;1099;105444;-79
2022/01/10 00:59:13;;;;;;;21.55;10.45;;;;;;;2.22;88.70;99763.38;126348;1099;104159;-79
2022/01/10 01:02:04;;;;;;;19.20;9.23;;;;;;;2.20;88.40;99759.83;126322;1099;104153;-80
2022/01/10 01:04:36;;;;;;;21.60;10.13;;;;;;;2.19;89.20;99755.44;126284;1099;104229;-80
2022/01/10 01:07:07;;;;;;;21.07;9.50;;;;;;;2.19;89.75;99768.38;126306;1099;104146;-79
2022/01/10 01:09:42;;;;;;;21.87;10.33;;;;;;;2.18;89.12;99755.35;126368;1099;104184;-80
2022/01/10 01:12:20;;;;;;;22.63;9.57;;;;;;;2.16;89.57;99758.73;126332;1099;104326;-80
2022/01/10 01:15:18;;;;;;;22.83;10.60;;;;;;;2.15;89.24;99753.47;126292;1099;104159;-80
2022/01/10 01:18:15;;;;;;;21.03;9.63;;;;;;;2.15;89.31;99753.47;126353;1099;104163;-80
2022/01/10 01:26:22;;;;;;;19.83;9.43;;;;;;;2.15;89.08;99756.97;126236;1099;104258;-79
2022/01/10 01:28:54;;;;;;;21.60;9.70;;;;;;;2.14;89.18;99759.47;126302;1099;104275;-79
2022/01/10 01:31:26;;;;;;;21.10;8.83;;;;;;;2.14;89.72;99756.88;126382;1099;104425;-80
2022/01/10 01:33:59;;;;;;;21.90;9.70;;;;;;;2.14;88.95;99757.77;126375;1099;104159;-80
2022/01/10 01:36:33;;;;;;;20.57;9.30;;;;;;;2.13;88.90;99750.80;126272;1099;104329;-80
2022/01/10 01:39:18;;;;;;;20.47;9.90;;;;;;;2.14;88.63;99762.06;126347;1099;104155;-80
2022/01/10 01:41:54;;;;;;;22.27;9.60;;;;;;;2.13;89.53;99749.91;126292;1099;104206;-80
2022/01/10 01:44:26;;;;;;;21.50;9.30;;;;;;;2.12;89.01;99754.20;126275;1099;104253;-80
2022/01/10 01:46:57;;;;;;;20.90;9.37;;;;;;;2.13;89.11;99750.80;126323;1098;104258;-80
2022/01/10 01:49:29;;;;;;;21.80;9.00;;;;;;;2.13;89.62;99755.97;126291;1099;104156;-80
2022/01/10 01:52:04;;;;;;;20.47;9.17;;;;;;;2.13;88.64;99761.14;126340;1099;104425;-81
2022/01/10 01:54:36;;;;;;;19.90;8.93;;;;;;;2.17;88.56;99754.47;126259;1099;104637;-80
2022/01/10 01:57:07;;;;;;;18.43;8.77;;;;;;;2.17;89.23;99749.30;126306;1099;104158;-81
2022/01/10 01:59:39;;;;;;;18.73;8.50;;;;;;;2.16;89.81;99753.55;126290;1099;104199;-79
2022/01/10 02:02:10;;;;;;;18.43;8.70;;;;;;;2.18;88.80;99760.53;126329;1099;104784;-80
2022/01/10 02:04:43;;;;;;;18.77;8.30;;;;;;;2.19;89.22;99758.03;126371;1099;104184;-80
2022/01/10 02:07:14;;;;;;;19.15;8.50;;;;;;;2.19;88.89;99759.73;126205;1099;104265;-79
2022/01/10 02:09:48;;;;;;;19.03;8.07;;;;;;;2.18;88.78;99761.41;126371;1099;104201;-81
2022/01/10 02:12:20;;;;;;;17.97;8.10;;;;;;;2.19;89.18;99764.91;126274;1099;104246;-79
2022/01/10 02:14:52;;;;;;;19.07;8.67;;;;;;;2.17;89.00;99754.47;126242;1099;104874;-80
2022/01/10 02:17:34;;;;;;;18.53;8.43;;;;;;;2.16;89.07;99766.50;126320;1098;104143;-80
2022/01/10 02:20:16;;;;;;;20.00;8.83;;;;;;;2.17;88.77;99759.65;126315;1099;104233;-81
2022/01/10 02:22:48;;;;;;;18.05;8.15;;;;;;;2.17;89.35;99764.83;126388;1096;101738;-80
2022/01/10 02:25:40;;;;;;;18.63;8.80;;;;;;;2.16;89.17;99763.91;125799;1099;104184;-80
2022/01/10 02:28:12;;;;;;;19.23;8.20;;;;;;;2.18;89.10;99765.70;126312;1099;104188;-80
2022/01/10 02:30:43;;;;;;;17.17;8.03;;;;;;;2.18;89.31;99766.59;126318;1099;104150;-80
2022/01/10 02:33:17;;;;;;;17.30;7.70;;;;;;;2.19;89.33;99772.68;126294;1099;104159;-80
2022/01/10 02:36:02;;;;;;;17.02;7.80;;;;;;;2.19;88.82;99780.45;126326;1099;104380;-80
2022/01/10 02:38:34;;;;;;;16.73;7.50;;;;;;;2.20;88.85;99784.80;126327;1099;104204;-80
2022/01/10 02:41:05;;;;;;;16.63;7.73;;;;;;;2.20;88.88;99785.71;126367;1099;104172;-79
2022/01/10 02:43:38;;;;;;;14.70;7.20;;;;;;;2.21;89.30;99790.06;126276;1099;104143;-79
2022/01/10 02:46:16;;;;;;;16.00;7.35;;;;;;;2.21;89.16;99794.36;126306;1097;104188;-79
2022/01/10 02:48:47;;;;;;;18.57;8.23;;;;;;;2.22;89.66;99803.92;126296;1099;104169;-80
2022/01/10 02:51:22;;;;;;;17.40;7.03;;;;;;;2.21;89.35;99800.41;126298;1099;104275;-80
2022/01/10 02:53:54;;;;;;;;;;;;;;;2.20;88.89;99801.23;126334;1099;104672;-80
2022/01/10 02:56:28;;;;;;;17.17;7.60;;;;;;;2.18;88.59;99810.59;126339;1099;104175;-79
2022/01/10 02:59:00;;;;;;;17.10;7.93;;;;;;;2.20;88.66;99821.95;126248;1099;104203;-80
2022/01/10 03:01:31;;;;;;;16.27;7.50;;;;;;;2.21;89.27;99821.13;126334;1098;104149;-80
2022/01/10 03:04:04;;;;;;;17.93;8.10;;;;;;;2.21;89.13;99823.71;126289;1099;104599;-80
2022/01/10 03:06:36;;;;;;;17.20;7.63;;;;;;;2.22;88.96;99817.74;126333;1099;104146;-80
2022/01/10 03:09:08;;;;;;;16.23;7.33;;;;;;;2.22;89.13;99822.92;126284;1099;104146;-80
2022/01/10 03:11:41;;;;;;;15.40;6.80;;;;;;;2.22;88.80;99820.33;126354;1099;104277;-80
2022/01/10 03:14:13;;;;;;;15.07;7.27;;;;;;;2.22;89.16;99829.80;126309;1099;104207;-80
2022/01/10 03:16:45;;;;;;;15.03;7.27;;;;;;;2.19;89.29;99821.86;126358;1099;104153;-80
2022/01/10 03:19:16;;;;;;;16.83;7.97;;;;;;;2.18;88.77;99828.71;126353;1098;104166;-80
2022/01/10 03:21:48;;;;;;;15.33;7.60;;;;;;;2.17;89.31;99837.30;126357;1098;104146;-79
2022/01/10 03:24:20;;;;;;;16.20;7.50;;;;;;;2.15;88.77;99837.22;126283;1099;104220;-80
2022/01/10 03:26:53;;;;;;;16.30;7.10;;;;;;;2.14;88.76;99843.18;126357;1099;104146;-80
2022/01/10 03:29:25;;;;;;;18.37;7.87;;;;;;;2.14;89.02;99838.00;126282;1099;104172;-80
2022/01/10 03:31:58;;;;;;;18.03;8.13;;;;;;;2.15;88.76;99839.80;126360;1099;104193;-79
2022/01/10 03:34:30;;;;;;;22.23;9.33;;;;;;;2.15;89.29;99844.06;126300;1099;104312;-79
2022/01/10 03:37:03;;;;;;;21.00;8.67;;;;;;;2.15;88.73;99847.56;126347;1099;104290;-80
2022/01/10 03:39:35;;;;;;;14.68;6.78;;;;;;;2.13;89.02;99851.73;126320;1099;104258;-80
2022/01/10 03:42:07;;;;;;;16.20;7.40;;;;;;;2.15;89.14;99862.18;126261;1099;104217;-80
2022/01/10 03:44:39;;;;;;;16.20;7.30;;;;;;;2.15;88.92;99857.92;126360;1099;102761;-80
2022/01/10 03:47:12;;;;;;;15.37;6.67;;;;;;;2.16;88.80;99857.09;126294;1099;104184;-80
2022/01/10 03:49:43;;;;;;;15.15;7.10;;;;;;;2.17;88.49;99860.59;126303;1099;104209;-80
2022/01/10 03:52:15;;;;;;;15.67;7.00;;;;;;;2.15;89.07;99870.86;126297;1099;104197;-80
2022/01/10 03:54:46;;;;;;;15.87;7.17;;;;;;;2.15;88.82;99865.69;126364;1099;104149;-79
2022/01/10 03:57:18;;;;;;;17.13;7.30;;;;;;;2.15;88.75;99863.09;126301;1099;104271;-80
2022/01/10 03:59:49;;;;;;;15.20;7.20;;;;;;;2.15;88.28;99881.22;126305;1099;105386;-80
2022/01/10 04:02:25;;;;;;;18.47;8.20;;;;;;;2.16;88.93;99888.16;126326;1099;104265;-80
2022/01/10 04:04:59;;;;;;;16.97;7.23;;;;;;;2.15;88.32;99895.83;126382;1099;104181;-80
2022/01/10 04:07:30;;;;;;;17.77;8.27;;;;;;;2.14;88.91;99899.24;126349;1099;104156;-80
2022/01/10 04:10:01;;;;;;;18.87;8.50;;;;;;;2.14;88.67;99901.83;126250;1099;104637;-80
2022/01/10 04:12:33;;;;;;;18.57;8.37;;;;;;;2.13;89.00;99906.09;126276;1099;104201;-80
2022/01/10 04:15:05;;;;;;;18.00;7.50;;;;;;;2.14;89.25;99915.66;126325;1099;104251;-81
2022/01/10 04:17:40;;;;;;;18.90;8.70;;;;;;;2.13;89.02;99916.45;126351;1099;104182;-80
2022/01/10 04:20:14;;;;;;;19.67;8.37;;;;;;;2.14;88.18;99926.01;126173;1099;104175;-81
2022/01/10 04:22:48;;;;;;;19.67;8.40;;;;;;;2.14;88.85;99919.95;126346;1099;104166;-79
2022/01/10 04:25:20;;;;;;;18.23;8.10;;;;;;;2.14;88.99;99918.24;126372;1099;104246;-79
2022/01/10 04:27:52;;;;;;;20.67;7.90;;;;;;;2.14;88.67;99930.30;126280;1099;104631;-79
2022/01/10 04:30:36;;;;;;;17.65;7.70;;;;;;;2.14;88.79;99932.89;126318;1098;104146;-80
2022/01/10 04:33:10;;;;;;;16.13;7.40;;;;;;;2.14;88.51;99938.95;126268;1099;104172;-79
2022/01/10 04:35:42;;;;;;;18.07;8.18;;;;;;;2.14;88.88;99946.72;126348;1099;104181;-80
2022/01/10 04:38:13;;;;;;;18.20;8.00;;;;;;;2.15;88.09;99942.42;126311;1099;104249;-80
2022/01/10 04:40:46;;;;;;;17.67;7.57;;;;;;;2.16;88.43;99949.40;126247;1099;104178;-80
2022/01/10 04:43:17;;;;;;;14.30;7.07;;;;;;;2.17;88.41;99951.20;126366;1099;104201;-80
2022/01/10 04:45:51;;;;;;;17.37;7.43;;;;;;;2.20;88.67;99955.64;126331;1099;104146;-80
2022/01/10 04:48:25;;;;;;;18.73;8.00;;;;;;;2.21;88.55;99962.62;126362;1099;104159;-79
2022/01/10 04:53:56;;;;;;;19.33;8.87;;;;;;;2.24;88.49;99975.75;126362;1099;104698;-80
2022/01/10 04:56:29;;;;;;;21.23;8.70;;;;;;;2.24;88.06;99976.63;126344;1099;104146;-80
2022/01/10 04:59:04;;;;;;;25.33;12.23;;;;;;;2.25;88.31;99981.02;126277;1099;104172;-80
2022/01/10 05:01:36;;;;;;;35.47;18.90;;;;;;;2.26;89.04;99987.08;126252;1099;104264;-81
2022/01/10 05:04:10;;;;;;;45.87;22.37;;;;;;;2.27;88.65;99986.29;126334;1099;104217;-82
2022/01/10 05:06:42;;;;;;;24.75;12.65;;;;;;;2.26;88.65;99990.59;126289;1099;104150;-80
2022/01/10 05:09:14;;;;;;;28.27;13.83;;;;;;;2.25;88.47;99991.38;126169;1099;104274;-81
2022/01/10 05:11:56;;;;;;;24.33;11.50;;;;;;;2.24;87.95;99994.75;126130;1099;104275;-81
2022/01/10 05:14:28;;;;;;;22.23;10.50;;;;;;;2.23;88.07;99998.16;125299;1099;104274;-81
2022/01/10 05:17:00;;;;;;;22.77;10.90;;;;;;;2.21;88.44;99994.56;126079;1099;104195;-81
2022/01/10 05:19:32;;;;;;;22.57;10.23;;;;;;;2.20;87.57;99997.98;126004;1099;104144;-81
2022/01/10 05:22:04;;;;;;;25.57;12.73;;;;;;;2.18;88.49;99999.55;126094;1099;104331;-81
2022/01/10 05:24:38;;;;;;;29.13;16.17;;;;;;;2.18;88.32;100002.14;126034;1099;104149;-81
2022/01/10 05:27:12;;;;;;;24.50;12.77;;;;;;;2.15;88.25;99995.11;126161;1099;104147;-81
2022/01/10 05:29:46;;;;;;;22.93;10.60;;;;;;;2.15;88.18;100000.28;126140;1099;104322;-81
2022/01/10 05:32:16;;;;;;;;;;;;;;;2.14;88.20;100003.66;126163;1098;104149;-81
2022/01/10 05:35:02;;;;;;;25.17;11.23;;;;;;;2.14;88.44;100005.37;126255;1098;104191;-81
2022/01/10 05:37:34;;;;;;;25.27;12.23;;;;;;;2.14;88.44;100007.95;126177;1099;104313;-81
2022/01/10 05:40:07;;;;;;;24.93;13.20;;;;;;;2.14;88.51;100003.66;126323;1099;104191;-80
2022/01/10 05:42:38;;;;;;;27.00;11.97;;;;;;;2.14;88.72;100011.43;126142;1099;104345;-81
2022/01/10 05:45:13;;;;;;;24.33;12.37;;;;;;;2.16;87.88;100017.58;126221;1099;104277;-80
2022/01/10 05:47:46;;;;;;;26.67;12.33;;;;;;;2.14;88.25;100019.19;126128;1099;104172;-79
2022/01/10 05:50:31;;;;;;;23.50;12.17;;;;;;;2.14;87.56;100020.90;126128;1099;104188;-79
2022/01/10 05:53:03;;;;;;;27.93;13.03;;;;;;;2.13;88.28;100022.57;125333;1099;104303;-79
2022/01/10 05:55:41;;;;;;;26.50;13.87;;;;;;;2.14;88.43;100023.48;125270;1099;104363;-79
2022/01/10 05:58:14;;;;;;;25.00;13.17;;;;;;;2.14;88.24;100028.66;125189;1099;104495;-79
2022/01/10 06:00:48;;;;;;;25.13;12.33;;;;;;;2.15;87.96;100026.17;125236;1101;104156;-80
2022/01/10 06:03:19;;;;;;;25.70;11.00;;;;;;;2.20;88.34;100034.22;126029;1099;104197;-80
2022/01/10 06:05:56;;;;;;;21.97;10.40;;;;;;;2.20;88.37;100041.98;125336;1099;104328;-79
2022/01/10 06:08:31;;;;;;;25.23;10.90;;;;;;;2.21;88.37;100043.75;125985;1099;104290;-79
2022/01/10 06:11:04;;;;;;;23.80;10.67;;;;;;;2.22;87.43;100058.50;125382;1099;104178;-79
2022/01/10 06:13:40;;;;;;;27.00;12.03;;;;;;;2.23;87.52;100054.20;125265;1099;104300;-80
2022/01/10 06:16:15;;;;;;;28.60;14.33;;;;;;;2.23;87.93;100068.06;125456;1099;104309;-78
2022/01/10 06:18:48;;;;;;;29.00;15.07;;;;;;;2.24;87.60;100068.95;125292;1099;104172;-79
2022/01/10 06:21:20;;;;;;;32.20;17.30;;;;;;;2.25;88.54;100070.75;125352;1099;104312;-79
2022/01/10 06:23:52;;;;;;;30.47;16.30;;;;;;;2.24;87.95;100067.24;126104;1099;104181;-79
2022/01/10 06:26:26;;;;;;;32.00;15.50;;;;;;;2.23;87.66;100074.91;125997;1099;104210;-79
2022/01/10 06:28:59;;;;;;;32.97;14.90;;;;;;;2.21;87.70;100076.52;125921;1099;104280;-79
2022/01/10 06:31:31;;;;;;;30.40;13.50;;;;;;;2.21;87.33;100079.11;125802;1099;104168;-80
2022/01/10 06:34:10;;;;;;;26.87;13.17;;;;;;;2.21;87.38;100082.59;125726;1099;119160;-78
2022/01/10 06:36:45;;;;;;;29.00;13.70;;;;;;;2.21;87.66;100079.11;125857;1099;104178;-78
2022/01/10 06:39:22;;;;;;;28.87;13.77;;;;;;;2.23;87.41;100093.03;125884;1099;104070;-80
2022/01/10 06:41:56;;;;;;;29.63;13.23;;;;;;;2.22;87.43;100094.74;125767;1099;104176;-78
2022/01/10 06:44:29;;;;;;;28.40;14.33;;;;;;;2.20;87.52;100091.17;125949;1099;104152;-78
2022/01/10 06:47:08;;;;;;;27.67;13.13;;;;;;;2.20;87.33;100093.77;125940;1099;104168;-79
2022/01/10 06:49:41;;;;;;;30.33;14.20;;;;;;;2.19;87.75;100089.38;125868;1099;104150;-77
2022/01/10 06:52:13;;;;;;;26.43;13.30;;;;;;;2.18;88.09;100094.45;125778;1099;104166;-80
2022/01/10 06:54:56;;;;;;;29.50;14.20;;;;;;;2.20;87.94;100098.94;125680;1099;111443;-79
2022/01/10 06:57:44;;;;;;;29.70;14.20;;;;;;;2.22;87.56;100101.63;125751;1099;104271;-78
2022/01/10 07:00:24;;;;;;;34.60;15.00;;;;;;;2.20;87.54;100096.34;126067;1099;104245;-81
2022/01/10 07:02:58;;;;;;;33.30;16.37;;;;;;;2.11;87.90;100090.59;125837;1099;104263;-79
2022/01/10 07:05:29;;;;;;;;;;;;;;;2.19;87.89;100101.44;125192;1099;104242;-78
2022/01/10 07:08:11;;;;;;;37.53;16.03;;;;;;;2.20;87.65;100106.70;125081;1102;101996;-79
2022/01/10 07:10:59;;;;;;;35.55;16.00;;;;;;;2.14;87.44;100099.44;125508;1102;104259;-78
2022/01/10 07:13:31;;;;;;;36.60;15.40;;;;;;;2.19;87.81;100114.38;125029;1102;104351;-78
2022/01/10 07:16:16;;;;;;;32.27;15.43;;;;;;;2.18;87.83;100113.45;125104;1102;104271;-80
2022/01/10 07:18:50;;;;;;;39.20;16.60;;;;;;;2.14;87.45;100107.20;125053;1100;104214;-79
2022/01/10 07:21:31;;;;;;;40.93;18.00;;;;;;;2.15;87.64;100118.44;125031;1102;104239;-78
2022/01/10 07:24:09;;;;;;;38.97;17.83;;;;;;;2.16;87.64;100115.95;125137;1102;104171;-80
2022/01/10 07:26:41;;;;;;;37.47;19.03;;;;;;;2.18;87.04;100122.93;125023;1099;104306;-79
2022/01/10 07:29:16;;;;;;;39.97;18.33;;;;;;;2.17;87.11;100119.45;124962;1099;104271;-78
2022/01/10 07:31:55;;;;;;;39.37;18.83;;;;;;;2.17;87.13;100116.87;125207;1099;104450;-79
2022/01/10 07:34:30;;;;;;;37.87;17.73;;;;;;;2.19;87.29;100122.14;125129;1102;104256;-79
2022/01/10 07:37:15;;;;;;;46.63;20.13;;;;;;;2.18;87.53;100115.16;125389;1099;104200;-80
2022/01/10 07:39:53;;;;;;;39.77;19.20;;;;;;;2.21;87.34;100117.94;125975;1099;102598;-81
2022/01/10 07:42:28;;;;;;;44.50;19.10;;;;;;;2.24;87.46;100119.02;126164;1099;104268;-81
2022/01/10 07:45:12;;;;;;;40.37;17.97;;;;;;;2.27;87.79;100126.09;126067;1099;105495;-81
2022/01/10 07:48:01;;;;;;;42.67;18.73;;;;;;;2.28;86.96;100127.90;125929;1099;104182;-80
2022/01/10 07:51:02;;;;;;;45.27;19.30;;;;;;;2.29;87.23;100127.08;125840;1099;104175;-80
2022/01/10 07:53:34;;;;;;;40.87;18.47;;;;;;;2.32;87.86;100130.78;126005;1099;104280;-79
2022/01/10 07:56:11;;;;;;;42.27;20.37;;;;;;;2.34;87.54;100125.70;125752;1098;107031;-79
2022/01/10 07:58:46;;;;;;;47.05;21.55;;;;;;;2.34;87.18;100142.12;125989;1099;106021;-79
2022/01/10 08:01:21;;;;;;;44.10;21.40;;;;;;;2.33;87.35;100140.31;125843;1099;104283;-80
2022/01/10 08:03:55;;;;;;;45.43;21.77;;;;;;;2.38;87.40;100138.02;126024;1099;104235;-79
2022/01/10 08:06:31;;;;;;;48.30;21.60;;;;;;;2.36;87.44;100147.39;126023;1099;118554;-81
2022/01/10 08:09:06;;;;;;;45.20;21.07;;;;;;;2.32;87.31;100153.16;125963;1099;104169;-81
2022/01/10 08:11:53;;;;;;;52.10;21.57;;;;;;;2.31;87.41;100165.22;125993;1099;104693;-82
2022/01/10 08:14:41;;;;;;;44.40;20.03;;;;;;;2.31;86.97;100172.11;125968;1099;104181;-80
2022/01/10 08:17:16;;;;;;;43.80;19.13;;;;;;;2.27;86.47;100173.59;126280;1099;104277;-79
2022/01/10 08:19:56;;;;;;;43.35;18.80;;;;;;;2.25;86.31;100162.25;126257;1098;104146;-80
2022/01/10 08:22:32;;;;;;;44.37;20.43;;;;;;;2.24;87.10;100167.33;126024;1099;104149;-80
2022/01/10 08:25:08;;;;;;;48.97;23.40;;;;;;;2.26;86.96;100170.90;126090;1099;104226;-81
2022/01/10 08:27:46;;;;;;;46.53;22.43;;;;;;;2.26;87.34;100176.08;126159;1099;104168;-81
2022/01/10 08:30:20;;;;;;;48.60;20.83;;;;;;;2.26;86.99;100174.41;126042;1098;104162;-80
2022/01/10 08:32:56;;;;;;;41.57;18.60;;;;;;;2.26;86.90;100178.66;126043;1099;104319;-80
2022/01/10 08:35:31;;;;;;;40.27;18.33;;;;;;;2.23;86.46;100175.87;126133;1099;104155;-78
2022/01/10 08:38:06;;;;;;;36.70;17.43;;;;;;;2.24;86.85;100180.27;125868;1099;104286;-77
2022/01/10 08:40:39;;;;;;;34.17;16.50;;;;;;;2.24;86.26;100188.04;125969;1099;104175;-77
2022/01/10 08:43:12;;;;;;;36.23;16.30;;;;;;;2.20;86.87;100179.19;126140;1099;104203;-77
2022/01/10 08:45:46;;;;;;;40.30;17.90;;;;;;;2.15;86.05;100183.16;126059;1099;104147;-78
2022/01/10 08:48:18;;;;;;;36.67;17.27;;;;;;;2.14;86.61;100189.16;125947;1099;104226;-79
2022/01/10 08:50:53;;;;;;;39.90;16.27;;;;;;;2.11;86.26;100183.78;125881;1099;104175;-79
2022/01/10 08:53:33;;;;;;;37.90;17.55;;;;;;;2.08;86.87;100179.29;125885;1099;104312;-79
2022/01/10 08:56:14;;;;;;;37.55;16.87;;;;;;;2.08;86.58;100176.70;125939;1099;102814;-79
2022/01/10 08:58:50;;;;;;;38.33;17.30;;;;;;;2.07;86.74;100182.70;126116;1099;104830;-79
2022/01/10 09:01:24;;;;;;;37.93;17.87;;;;;;;2.07;86.57;100177.52;125941;1099;104169;-80
2022/01/10 09:04:02;;;;;;;40.38;18.23;;;;;;;2.07;86.41;100182.70;126132;1099;104163;-79
2022/01/10 09:06:36;;;;;;;42.53;18.70;;;;;;;2.07;86.56;100182.70;125975;1099;104230;-80
2022/01/10 09:09:15;;;;;;;40.37;16.57;;;;;;;2.05;86.66;100181.67;125885;1099;104143;-79
2022/01/10 09:11:58;;;;;;;39.08;16.48;;;;;;;2.03;85.86;100172.93;125847;1099;104248;-80
2022/01/10 09:14:33;;;;;;;37.60;17.50;;;;;;;2.02;86.43;100172.83;125830;1099;104141;-79
2022/01/10 09:17:06;;;;;;;37.10;17.75;;;;;;;2.04;86.93;100169.56;125756;1099;105498;-78
2022/01/10 09:19:41;;;;;;;39.67;19.27;;;;;;;2.08;86.25;100186.17;125881;1099;104293;-79
2022/01/10 09:22:13;;;;;;;39.13;17.70;;;;;;;2.11;86.70;100183.78;126101;1099;104204;-77
2022/01/10 09:24:47;;;;;;;43.05;18.10;;;;;;;2.11;85.89;100189.84;126034;1099;104207;-78
2022/01/10 09:27:21;;;;;;;42.57;18.87;;;;;;;2.13;86.54;100187.34;126066;1098;104248;-79
2022/01/10 09:29:55;;;;;;;41.53;19.02;;;;;;;2.16;86.61;100193.61;126189;1099;104158;-79
2022/01/10 09:32:29;;;;;;;43.40;19.90;;;;;;;2.19;86.64;100187.75;126041;1099;104198;-80
2022/01/10 09:35:03;;;;;;;51.45;21.00;;;;;;;2.20;85.71;100183.45;125874;1099;103447;-80
2022/01/10 09:37:42;;;;;;;53.10;23.87;;;;;;;2.22;86.21;100189.64;125939;1099;104264;-80
2022/01/10 09:40:35;;;;;;;51.17;22.10;;;;;;;2.23;86.17;100194.00;125926;1100;104223;-79
2022/01/10 09:43:15;;;;;;;57.17;22.77;;;;;;;2.21;85.57;100196.49;125874;1099;104188;-77
2022/01/10 09:45:56;;;;;;;58.68;24.82;;;;;;;2.21;85.53;100209.44;125990;1099;104340;-77
2022/01/10 09:48:28;;;;;;;58.80;22.60;;;;;;;2.19;85.62;100202.39;126093;1099;104252;-79
2022/01/10 09:51:00;;;;;;;59.17;24.00;;;;;;;2.16;85.27;100203.97;126118;1099;103620;-80
2022/01/10 09:53:51;;;;;;;;;;;;;;;;;;;;;
2022/01/10 09:56:34;;;;;;;55.03;21.47;;;;;;;2.10;84.74;100202.68;126085;1099;104146;-79
2022/01/10 09:59:25;;;;;;;55.47;23.40;;;;;;;2.13;85.59;100205.47;126166;1099;104155;-78
2022/01/10 10:01:59;;;;;;;46.73;19.20;;;;;;;2.05;85.26;100220.50;125889;1099;104185;-79
2022/01/10 10:04:49;;;;;;;58.93;27.70;;;;;;;2.10;85.63;100200.09;125867;1099;102963;-80
2022/01/10 10:07:28;;;;;;;56.63;22.73;;;;;;;2.11;85.42;100212.25;126015;1099;104275;-79
2022/01/10 10:10:11;;;;;;;53.43;22.07;;;;;;;2.08;85.46;100225.88;125963;1099;104406;-78
2022/01/10 10:12:49;;;;;;;51.63;22.50;;;;;;;2.00;85.97;100221.91;125884;1099;104162;-77
2022/01/10 10:15:28;;;;;;;52.47;23.70;;;;;;;1.96;85.91;100213.05;125218;1099;104294;-78
2022/01/10 10:18:03;;;;;;;51.93;22.30;;;;;;;1.94;85.48;100201.69;125186;1099;104346;-79
2022/01/10 10:20:36;;;;;;;51.65;22.13;;;;;;;1.94;86.09;100205.98;125106;1099;104226;-80
2022/01/10 10:23:14;;;;;;;52.33;21.00;;;;;;;1.95;86.39;100207.78;125090;1102;104108;-80
2022/01/10 10:25:55;;;;;;;51.90;23.37;;;;;;;1.91;85.89;100217.01;125081;1099;104175;-79
2022/01/10 10:28:27;;;;;;;57.87;24.07;;;;;;;1.94;85.74;100218.91;125168;1099;104255;-78
2022/01/10 10:31:03;;;;;;;54.80;23.13;;;;;;;1.94;85.96;100222.39;125331;1099;104156;-79
2022/01/10 10:33:39;;;;;;;59.07;26.97;;;;;;;1.97;86.08;100229.47;125861;1099;104099;-77
2022/01/10 10:36:15;;;;;;;58.67;28.00;;;;;;;2.02;85.99;100222.89;126183;1099;104137;-78
2022/01/10 10:38:56;;;;;;;55.90;25.43;;;;;;;2.06;85.67;100227.48;126152;1099;104145;-78
2022/01/10 10:41:39;;;;;;;55.10;25.17;;;;;;;2.07;85.87;100231.88;126287;1099;104929;-77
2022/01/10 10:44:12;;;;;;;55.83;25.40;;;;;;;2.06;86.16;100234.36;126044;1099;104211;-78
2022/01/10 10:46:50;;;;;;;56.17;25.93;;;;;;;2.10;86.03;100233.75;125978;1099;104262;-79
2022/01/10 10:49:33;;;;;;;62.60;28.13;;;;;;;2.14;86.12;100235.75;126101;1099;104271;-78
2022/01/10 10:52:11;;;;;;;57.57;25.00;;;;;;;2.15;85.72;100237.52;126028;1099;104188;-78
2022/01/10 10:54:45;;;;;;;57.47;25.13;;;;;;;2.14;85.48;100241.81;126086;1099;104171;-78
2022/01/10 10:57:21;;;;;;;61.88;27.05;;;;;;;2.17;85.46;100241.13;126202;1099;104152;-76
2022/01/10 10:59:59;;;;;;;60.83;27.30;;;;;;;2.20;85.57;100245.58;126066;1099;104335;-75
2022/01/10 11:02:33;;;;;;;54.60;26.07;;;;;;;2.19;86.07;100238.63;126151;1099;104236;-76
2022/01/10 11:05:08;;;;;;;61.73;27.67;;;;;;;2.20;85.53;100237.81;125852;1099;104155;-77
2022/01/10 11:07:47;;;;;;;61.43;28.50;;;;;;;2.21;86.04;100252.56;125922;1099;104203;-76
2022/01/10 11:10:19;;;;;;;60.40;26.63;;;;;;;2.19;86.36;100248.99;125867;1099;104406;-76
2022/01/10 11:12:55;;;;;;;62.37;28.53;;;;;;;2.19;86.00;100259.34;125896;1099;104191;-76
2022/01/10 11:15:28;;;;;;;67.20;29.33;;;;;;;2.18;86.39;100257.55;125886;1099;104153;-77
2022/01/10 11:18:07;;;;;;;61.17;27.80;;;;;;;2.19;86.21;100269.70;124942;1099;104323;-76
2022/01/10 11:20:47;;;;;;;65.03;28.93;;;;;;;2.19;86.50;100265.41;126329;1099;102110;-77
2022/01/10 11:23:23;;;;;;;65.90;30.17;;;;;;;2.21;85.82;100270.69;125629;1099;103264;-77
2022/01/10 11:26:00;;;;;;;66.67;29.20;;;;;;;2.18;85.78;100268.78;125565;1099;104222;-77
2022/01/10 11:28:31;;;;;;;60.50;28.10;;;;;;;2.17;85.81;100267.02;125010;1099;104149;-76
2022/01/10 11:31:07;;;;;;;64.57;25.57;;;;;;;2.16;85.96;100276.45;125616;1099;104404;-77
2022/01/10 11:33:44;;;;;;;63.37;26.40;;;;;;;2.12;86.08;100274.48;125776;1099;104142;-77
2022/01/10 11:36:18;;;;;;;64.40;27.85;;;;;;;2.09;86.25;100284.63;125465;1099;104213;-77
2022/01/10 11:38:52;;;;;;;;;;;;;;;2.09;86.52;100286.33;126129;1099;104268;-76
2022/01/10 11:41:26;;;;;;;66.73;26.87;;;;;;;2.05;85.92;100284.33;126057;1099;104188;-76
2022/01/10 11:44:07;;;;;;;65.23;28.40;;;;;;;1.98;85.70;100283.92;126044;1099;104207;-76
2022/01/10 11:46:41;;;;;;;65.83;26.33;;;;;;;1.98;85.78;100288.20;125992;1099;104245;-77
2022/01/10 11:49:23;;;;;;;65.83;25.77;;;;;;;1.98;85.48;100288.20;125867;1099;104213;-76
2022/01/10 11:52:06;;;;;;;62.37;27.13;;;;;;;1.95;86.32;100296.66;125845;1099;109152;-77
2022/01/10 11:54:43;;;;;;;63.93;25.23;;;;;;;1.90;86.33;100290.28;125192;1099;104409;-76
2022/01/10 11:57:19;;;;;;;46.97;18.97;;;;;;;1.88;85.53;100301.31;124992;1102;104289;-77